sensor_id;sensor_type;location;lat;lon;timestamp;pressure;altitude;pressure_sealevel;temperature
68440;BMP180;55421;51.600;5.718;2023-02-01T00:00:57;162021.00;;;4.48
68440;BMP180;55421;51.600;5.718;2023-02-01T00:03:26;162023.80;;;4.48
68440;BMP180;55421;51.600;5.718;2023-02-01T00:05:59;161953.80;;;4.50
68440;BMP180;55421;51.600;5.718;2023-02-01T00:08:26;161971.00;;;4.44
68440;BMP180;55421;51.600;5.718;2023-02-01T00:11:08;162007.00;;;4.50
68440;BMP180;55421;51.600;5.718;2023-02-01T00:13:39;162032.20;;;4.50
68440;BMP180;55421;51.600;5.718;2023-02-01T00:16:09;161993.00;;;4.50
68440;BMP180;55421;51.600;5.718;2023-02-01T00:18:36;161965.41;;;4.50
68440;BMP180;55421;51.600;5.718;2023-02-01T00:21:03;161897.59;;;4.50
68440;BMP180;55421;51.600;5.718;2023-02-01T00:23:34;161771.41;;;4.50
68440;BMP180;55421;51.600;5.718;2023-02-01T00:26:03;161879.20;;;4.50
68440;BMP180;55421;51.600;5.718;2023-02-01T00:28:30;161861.41;;;4.60
68440;BMP180;55421;51.600;5.718;2023-02-01T00:30:59;161914.80;;;4.60
68440;BMP180;55421;51.600;5.718;2023-02-01T00:33:27;161954.20;;;4.60
68440;BMP180;55421;51.600;5.718;2023-02-01T00:36:02;161924.59;;;4.60
68440;BMP180;55421;51.600;5.718;2023-02-01T00:38:29;161928.59;;;4.52
68440;BMP180;55421;51.600;5.718;2023-02-01T00:41:09;161918.20;;;4.56
68440;BMP180;55421;51.600;5.718;2023-02-01T00:43:37;161937.00;;;4.60
68440;BMP180;55421;51.600;5.718;2023-02-01T00:46:03;161880.20;;;4.60
68440;BMP180;55421;51.600;5.718;2023-02-01T00:48:30;161812.20;;;4.58
68440;BMP180;55421;51.600;5.718;2023-02-01T00:51:03;161783.00;;;4.50
68440;BMP180;55421;51.600;5.718;2023-02-01T00:53:31;161727.00;;;4.50
68440;BMP180;55421;51.600;5.718;2023-02-01T00:55:57;161583.80;;;4.50
68440;BMP180;55421;51.600;5.718;2023-02-01T00:58:24;161592.20;;;4.50
68440;BMP180;55421;51.600;5.718;2023-02-01T01:03:45;161589.41;;;4.50
68440;BMP180;55421;51.600;5.718;2023-02-01T01:06:16;161539.41;;;4.50
68440;BMP180;55421;51.600;5.718;2023-02-01T01:08:43;161313.00;;;4.46
68440;BMP180;55421;51.600;5.718;2023-02-01T01:11:14;161088.80;;;4.40
68440;BMP180;55421;51.600;5.718;2023-02-01T01:13:41;161157.59;;;4.40
68440;BMP180;55421;51.600;5.718;2023-02-01T01:16:10;160892.59;;;4.40
68440;BMP180;55421;51.600;5.718;2023-02-01T01:18:38;160477.41;;;4.40
68440;BMP180;55421;51.600;5.718;2023-02-01T01:21:07;160190.00;;;4.40
68440;BMP180;55421;51.600;5.718;2023-02-01T01:23:35;159506.00;;;4.40
68440;BMP180;55421;51.600;5.718;2023-02-01T01:26:09;159115.59;;;4.32
68440;BMP180;55421;51.600;5.718;2023-02-01T01:28:36;158995.20;;;4.30
68440;BMP180;55421;51.600;5.718;2023-02-01T01:31:02;158985.80;;;4.30
68440;BMP180;55421;51.600;5.718;2023-02-01T01:33:29;158833.41;;;4.30
68440;BMP180;55421;51.600;5.718;2023-02-01T01:35:55;158425.00;;;4.20
68440;BMP180;55421;51.600;5.718;2023-02-01T01:38:22;158377.41;;;4.20
68440;BMP180;55421;51.600;5.718;2023-02-01T01:40:48;158588.59;;;4.12
68440;BMP180;55421;51.600;5.718;2023-02-01T01:43:19;157930.80;;;4.10
68440;BMP180;55421;51.600;5.718;2023-02-01T01:45:49;157545.80;;;4.10
68440;BMP180;55421;51.600;5.718;2023-02-01T01:48:27;157563.20;;;4.04
68440;BMP180;55421;51.600;5.718;2023-02-01T01:51:02;157575.80;;;4.00
68440;BMP180;55421;51.600;5.718;2023-02-01T01:53:37;157690.41;;;4.00
68440;BMP180;55421;51.600;5.718;2023-02-01T01:56:04;157461.20;;;4.00
68440;BMP180;55421;51.600;5.718;2023-02-01T01:58:33;157386.41;;;3.94
68440;BMP180;55421;51.600;5.718;2023-02-01T02:01:00;157960.00;;;3.90
68440;BMP180;55421;51.600;5.718;2023-02-01T02:03:39;157581.00;;;3.90
68440;BMP180;55421;51.600;5.718;2023-02-01T02:06:54;157907.00;;;3.90
68440;BMP180;55421;51.600;5.718;2023-02-01T02:09:15;158196.80;;;3.90
68440;BMP180;55421;51.600;5.718;2023-02-01T02:11:42;158178.20;;;3.90
68440;BMP180;55421;51.600;5.718;2023-02-01T02:14:13;157855.80;;;3.88
68440;BMP180;55421;51.600;5.718;2023-02-01T02:17:46;157343.80;;;3.80
68440;BMP180;55421;51.600;5.718;2023-02-01T02:23:18;157586.20;;;3.80
68440;BMP180;55421;51.600;5.718;2023-02-01T02:34:47;158039.59;;;3.88
68440;BMP180;55421;51.600;5.718;2023-02-01T02:37:25;157563.59;;;3.80
68440;BMP180;55421;51.600;5.718;2023-02-01T02:42:56;157126.41;;;3.80
68440;BMP180;55421;51.600;5.718;2023-02-01T02:45:53;157951.59;;;3.80
68440;BMP180;55421;51.600;5.718;2023-02-01T02:49:05;158351.59;;;3.90
68440;BMP180;55421;51.600;5.718;2023-02-01T02:51:50;158240.41;;;3.90
68440;BMP180;55421;51.600;5.718;2023-02-01T02:54:42;158216.00;;;3.90
68440;BMP180;55421;51.600;5.718;2023-02-01T02:57:37;157971.20;;;3.90
68440;BMP180;55421;51.600;5.718;2023-02-01T03:00:29;158483.41;;;3.90
68440;BMP180;55421;51.600;5.718;2023-02-01T03:03:16;158566.20;;;4.00
68440;BMP180;55421;51.600;5.718;2023-02-01T03:06:02;158366.59;;;4.00
68440;BMP180;55421;51.600;5.718;2023-02-01T03:08:31;157119.59;;;3.96
68440;BMP180;55421;51.600;5.718;2023-02-01T03:11:12;157472.20;;;4.00
68440;BMP180;55421;51.600;5.718;2023-02-01T03:14:02;158836.80;;;4.00
68440;BMP180;55421;51.600;5.718;2023-02-01T03:16:37;159351.20;;;4.06
68440;BMP180;55421;51.600;5.718;2023-02-01T03:19:28;159326.41;;;4.10
68440;BMP180;55421;51.600;5.718;2023-02-01T03:22:03;159832.20;;;4.10
68440;BMP180;55421;51.600;5.718;2023-02-01T03:24:42;160128.00;;;4.10
68440;BMP180;55421;51.600;5.718;2023-02-01T03:27:32;160343.41;;;4.10
68440;BMP180;55421;51.600;5.718;2023-02-01T03:30:11;160610.41;;;4.20
68440;BMP180;55421;51.600;5.718;2023-02-01T03:32:47;160719.41;;;4.20
68440;BMP180;55421;51.600;5.718;2023-02-01T03:35:56;160355.00;;;4.20
68440;BMP180;55421;51.600;5.718;2023-02-01T03:41:50;160625.59;;;4.20
68440;BMP180;55421;51.600;5.718;2023-02-01T03:44:36;160329.20;;;4.20
68440;BMP180;55421;51.600;5.718;2023-02-01T03:47:14;160388.20;;;4.20
68440;BMP180;55421;51.600;5.718;2023-02-01T03:49:50;160393.41;;;4.20
68440;BMP180;55421;51.600;5.718;2023-02-01T03:52:30;160541.20;;;4.10
68440;BMP180;55421;51.600;5.718;2023-02-01T03:54:59;161033.80;;;4.10
68440;BMP180;55421;51.600;5.718;2023-02-01T03:57:33;161144.00;;;4.10
68440;BMP180;55421;51.600;5.718;2023-02-01T04:00:16;161347.20;;;4.10
68440;BMP180;55421;51.600;5.718;2023-02-01T04:02:44;161432.80;;;4.10
68440;BMP180;55421;51.600;5.718;2023-02-01T04:05:10;161446.41;;;4.10
68440;BMP180;55421;51.600;5.718;2023-02-01T04:07:37;161308.20;;;4.02
68440;BMP180;55421;51.600;5.718;2023-02-01T04:10:04;161190.00;;;4.00
68440;BMP180;55421;51.600;5.718;2023-02-01T04:12:31;161177.59;;;4.00
68440;BMP180;55421;51.600;5.718;2023-02-01T04:14:59;161266.41;;;4.00
68440;BMP180;55421;51.600;5.718;2023-02-01T04:17:26;161287.80;;;4.00
68440;BMP180;55421;51.600;5.718;2023-02-01T04:19:53;161013.00;;;4.00
68440;BMP180;55421;51.600;5.718;2023-02-01T04:22:19;160725.41;;;3.96
68440;BMP180;55421;51.600;5.718;2023-02-01T04:24:45;160869.59;;;3.90
68440;BMP180;55421;51.600;5.718;2023-02-01T04:27:12;160991.80;;;3.90
68440;BMP180;55421;51.600;5.718;2023-02-01T04:29:39;160925.59;;;3.90
68440;BMP180;55421;51.600;5.718;2023-02-01T04:32:06;160886.41;;;3.92
68440;BMP180;55421;51.600;5.718;2023-02-01T04:34:33;160783.59;;;3.90
68440;BMP180;55421;51.600;5.718;2023-02-01T04:36:59;160729.80;;;3.90
68440;BMP180;55421;51.600;5.718;2023-02-01T04:39:26;161009.20;;;3.90
68440;BMP180;55421;51.600;5.718;2023-02-01T04:41:52;161066.00;;;3.90
68440;BMP180;55421;51.600;5.718;2023-02-01T04:44:20;161048.59;;;3.90
68440;BMP180;55421;51.600;5.718;2023-02-01T04:46:47;161177.41;;;3.90
68440;BMP180;55421;51.600;5.718;2023-02-01T04:49:15;161170.80;;;3.84
68440;BMP180;55421;51.600;5.718;2023-02-01T04:51:42;161081.20;;;3.80
68440;BMP180;55421;51.600;5.718;2023-02-01T04:54:09;161039.00;;;3.80
68440;BMP180;55421;51.600;5.718;2023-02-01T04:56:38;161128.59;;;3.84
68440;BMP180;55421;51.600;5.718;2023-02-01T04:59:05;161094.80;;;3.90
68440;BMP180;55421;51.600;5.718;2023-02-01T05:01:32;161020.80;;;3.90
68440;BMP180;55421;51.600;5.718;2023-02-01T05:03:59;161105.20;;;3.90
68440;BMP180;55421;51.600;5.718;2023-02-01T05:06:25;161044.59;;;3.90
68440;BMP180;55421;51.600;5.718;2023-02-01T05:08:52;161233.20;;;3.90
68440;BMP180;55421;51.600;5.718;2023-02-01T05:11:18;161376.00;;;3.94
68440;BMP180;55421;51.600;5.718;2023-02-01T05:14:04;161651.41;;;4.00
68440;BMP180;55421;51.600;5.718;2023-02-01T05:16:30;161760.41;;;4.00
68440;BMP180;55421;51.600;5.718;2023-02-01T05:18:57;161770.00;;;4.06
68440;BMP180;55421;51.600;5.718;2023-02-01T05:21:24;161829.80;;;4.10
68440;BMP180;55421;51.600;5.718;2023-02-01T05:23:50;161804.20;;;4.10
68440;BMP180;55421;51.600;5.718;2023-02-01T05:26:37;161915.00;;;4.20
68440;BMP180;55421;51.600;5.718;2023-02-01T05:29:05;161955.20;;;4.20
68440;BMP180;55421;51.600;5.718;2023-02-01T05:31:31;161964.00;;;4.20
68440;BMP180;55421;51.600;5.718;2023-02-01T05:33:58;162004.41;;;4.20
68440;BMP180;55421;51.600;5.718;2023-02-01T05:36:24;162010.59;;;4.26
68440;BMP180;55421;51.600;5.718;2023-02-01T05:38:51;162022.20;;;4.30
68440;BMP180;55421;51.600;5.718;2023-02-01T05:41:17;162035.41;;;4.30
68440;BMP180;55421;51.600;5.718;2023-02-01T05:43:44;162036.20;;;4.30
68440;BMP180;55421;51.600;5.718;2023-02-01T05:46:10;162066.59;;;4.30
68440;BMP180;55421;51.600;5.718;2023-02-01T05:48:42;162075.80;;;4.30
68440;BMP180;55421;51.600;5.718;2023-02-01T05:51:11;162078.20;;;4.30
68440;BMP180;55421;51.600;5.718;2023-02-01T05:53:37;162061.00;;;4.30
68440;BMP180;55421;51.600;5.718;2023-02-01T05:56:05;162073.41;;;4.30
68440;BMP180;55421;51.600;5.718;2023-02-01T05:58:31;162063.80;;;4.30
68440;BMP180;55421;51.600;5.718;2023-02-01T06:01:02;162053.41;;;4.22
68440;BMP180;55421;51.600;5.718;2023-02-01T06:03:29;162068.59;;;4.30
68440;BMP180;55421;51.600;5.718;2023-02-01T06:05:56;162077.80;;;4.30
68440;BMP180;55421;51.600;5.718;2023-02-01T06:08:22;162079.00;;;4.30
68440;BMP180;55421;51.600;5.718;2023-02-01T06:10:59;162083.00;;;4.30
68440;BMP180;55421;51.600;5.718;2023-02-01T06:13:26;162084.59;;;4.30
68440;BMP180;55421;51.600;5.718;2023-02-01T06:15:52;162081.80;;;4.30
68440;BMP180;55421;51.600;5.718;2023-02-01T06:18:19;162082.59;;;4.30
68440;BMP180;55421;51.600;5.718;2023-02-01T06:20:53;162079.41;;;4.34
68440;BMP180;55421;51.600;5.718;2023-02-01T06:23:20;162082.00;;;4.40
68440;BMP180;55421;51.600;5.718;2023-02-01T06:25:59;162095.80;;;4.40
68440;BMP180;55421;51.600;5.718;2023-02-01T06:28:28;162094.20;;;4.40
68440;BMP180;55421;51.600;5.718;2023-02-01T06:30:54;162090.80;;;4.44
68440;BMP180;55421;51.600;5.718;2023-02-01T06:33:21;162079.41;;;4.50
68440;BMP180;55421;51.600;5.718;2023-02-01T06:35:48;162106.41;;;4.50
68440;BMP180;55421;51.600;5.718;2023-02-01T06:38:14;162076.00;;;4.50
68440;BMP180;55421;51.600;5.718;2023-02-01T06:40:41;162120.59;;;4.54
68440;BMP180;55421;51.600;5.718;2023-02-01T06:43:08;162129.59;;;4.58
68440;BMP180;55421;51.600;5.718;2023-02-01T06:45:35;162126.80;;;4.60
68440;BMP180;55421;51.600;5.718;2023-02-01T06:48:01;162154.41;;;4.60
68440;BMP180;55421;51.600;5.718;2023-02-01T06:50:28;162189.41;;;4.60
68440;BMP180;55421;51.600;5.718;2023-02-01T06:52:55;162215.20;;;4.70
68440;BMP180;55421;51.600;5.718;2023-02-01T06:55:21;162210.80;;;4.70
68440;BMP180;55421;51.600;5.718;2023-02-01T06:57:53;162232.41;;;4.70
68440;BMP180;55421;51.600;5.718;2023-02-01T07:00:20;162269.00;;;4.70
68440;BMP180;55421;51.600;5.718;2023-02-01T07:02:47;162279.80;;;4.80
68440;BMP180;55421;51.600;5.718;2023-02-01T07:05:14;162272.00;;;4.80
68440;BMP180;55421;51.600;5.718;2023-02-01T07:07:40;162250.59;;;4.80
68440;BMP180;55421;51.600;5.718;2023-02-01T07:10:08;162260.20;;;4.80
68440;BMP180;55421;51.600;5.718;2023-02-01T07:12:35;162280.59;;;4.80
68440;BMP180;55421;51.600;5.718;2023-02-01T07:15:03;162297.59;;;4.90
68440;BMP180;55421;51.600;5.718;2023-02-01T07:17:30;162290.20;;;4.90
68440;BMP180;55421;51.600;5.718;2023-02-01T07:19:57;162273.59;;;4.90
68440;BMP180;55421;51.600;5.718;2023-02-01T07:22:26;162304.00;;;4.90
68440;BMP180;55421;51.600;5.718;2023-02-01T07:24:52;162292.59;;;4.90
68440;BMP180;55421;51.600;5.718;2023-02-01T07:27:19;162262.41;;;4.90
68440;BMP180;55421;51.600;5.718;2023-02-01T07:29:46;162273.00;;;4.92
68440;BMP180;55421;51.600;5.718;2023-02-01T07:32:12;162212.59;;;4.90
68440;BMP180;55421;51.600;5.718;2023-02-01T07:34:39;162194.41;;;4.90
68440;BMP180;55421;51.600;5.718;2023-02-01T07:37:05;162232.20;;;4.90
68440;BMP180;55421;51.600;5.718;2023-02-01T07:39:32;162251.20;;;4.88
68440;BMP180;55421;51.600;5.718;2023-02-01T07:41:59;162217.80;;;4.86
68440;BMP180;55421;51.600;5.718;2023-02-01T07:44:25;162208.00;;;4.80
68440;BMP180;55421;51.600;5.718;2023-02-01T07:46:52;162176.20;;;4.80
68440;BMP180;55421;51.600;5.718;2023-02-01T07:49:18;162115.00;;;4.80
68440;BMP180;55421;51.600;5.718;2023-02-01T07:51:45;162189.59;;;4.80
68440;BMP180;55421;51.600;5.718;2023-02-01T07:54:11;162171.80;;;4.80
68440;BMP180;55421;51.600;5.718;2023-02-01T07:56:38;162141.80;;;4.80
68440;BMP180;55421;51.600;5.718;2023-02-01T07:59:04;162107.80;;;4.80
68440;BMP180;55421;51.600;5.718;2023-02-01T08:01:33;162142.80;;;4.80
68440;BMP180;55421;51.600;5.718;2023-02-01T08:04:02;162102.59;;;4.80
68440;BMP180;55421;51.600;5.718;2023-02-01T08:06:33;162157.41;;;4.80
68440;BMP180;55421;51.600;5.718;2023-02-01T08:09:01;162179.00;;;4.80
68440;BMP180;55421;51.600;5.718;2023-02-01T08:11:28;162215.20;;;4.82
68440;BMP180;55421;51.600;5.718;2023-02-01T08:13:55;162261.80;;;4.90
68440;BMP180;55421;51.600;5.718;2023-02-01T08:16:23;162212.00;;;4.90
68440;BMP180;55421;51.600;5.718;2023-02-01T08:18:51;162217.20;;;4.90
68440;BMP180;55421;51.600;5.718;2023-02-01T08:21:22;162264.41;;;4.92
68440;BMP180;55421;51.600;5.718;2023-02-01T08:23:50;162290.20;;;5.00
68440;BMP180;55421;51.600;5.718;2023-02-01T08:26:25;162302.59;;;5.00
68440;BMP180;55421;51.600;5.718;2023-02-01T08:28:56;162334.00;;;5.06
68440;BMP180;55421;51.600;5.718;2023-02-01T08:31:24;162370.41;;;5.10
68440;BMP180;55421;51.600;5.718;2023-02-01T08:33:55;162397.59;;;5.12
68440;BMP180;55421;51.600;5.718;2023-02-01T08:36:24;162347.80;;;5.20
68440;BMP180;55421;51.600;5.718;2023-02-01T08:38:52;162363.80;;;5.30
68440;BMP180;55421;51.600;5.718;2023-02-01T08:41:23;162444.80;;;5.30
68440;BMP180;55421;51.600;5.718;2023-02-01T08:43:50;162449.20;;;5.32
68440;BMP180;55421;51.600;5.718;2023-02-01T08:46:17;162499.20;;;5.40
68440;BMP180;55421;51.600;5.718;2023-02-01T08:48:46;162512.41;;;5.40
68440;BMP180;55421;51.600;5.718;2023-02-01T08:51:17;162498.80;;;5.40
68440;BMP180;55421;51.600;5.718;2023-02-01T08:53:44;162552.00;;;5.50
68440;BMP180;55421;51.600;5.718;2023-02-01T08:56:14;162515.59;;;5.50
68440;BMP180;55421;51.600;5.718;2023-02-01T08:58:41;162543.41;;;5.50
68440;BMP180;55421;51.600;5.718;2023-02-01T09:01:11;162529.00;;;5.58
68440;BMP180;55421;51.600;5.718;2023-02-01T09:03:39;162530.41;;;5.60
68440;BMP180;55421;51.600;5.718;2023-02-01T09:06:12;162572.80;;;5.60
68440;BMP180;55421;51.600;5.718;2023-02-01T09:08:40;162600.80;;;5.70
68440;BMP180;55421;51.600;5.718;2023-02-01T09:11:13;162583.41;;;5.70
68440;BMP180;55421;51.600;5.718;2023-02-01T09:13:40;162514.20;;;5.78
68440;BMP180;55421;51.600;5.718;2023-02-01T09:16:06;162530.41;;;5.80
68440;BMP180;55421;51.600;5.718;2023-02-01T09:18:33;162324.80;;;5.80
68440;BMP180;55421;51.600;5.718;2023-02-01T09:21:07;162097.80;;;5.80
68440;BMP180;55421;51.600;5.718;2023-02-01T09:23:34;161926.20;;;5.80
68440;BMP180;55421;51.600;5.718;2023-02-01T09:26:03;161882.59;;;5.82
68440;BMP180;55421;51.600;5.718;2023-02-01T09:28:31;161786.41;;;5.86
68440;BMP180;55421;51.600;5.718;2023-02-01T09:30:59;161529.41;;;5.90
68440;BMP180;55421;51.600;5.718;2023-02-01T09:33:28;161550.80;;;5.90
68440;BMP180;55421;51.600;5.718;2023-02-01T09:36:01;161419.80;;;5.98
68440;BMP180;55421;51.600;5.718;2023-02-01T09:38:29;161555.59;;;6.08
68440;BMP180;55421;51.600;5.718;2023-02-01T09:40:57;161723.20;;;6.10
68440;BMP180;55421;51.600;5.718;2023-02-01T09:43:52;161219.59;;;6.10
68440;BMP180;55421;51.600;5.718;2023-02-01T09:46:26;161693.59;;;6.10
68440;BMP180;55421;51.600;5.718;2023-02-01T09:48:57;161562.80;;;6.20
68440;BMP180;55421;51.600;5.718;2023-02-01T09:51:32;161513.00;;;6.20
68440;BMP180;55421;51.600;5.718;2023-02-01T09:56:54;161350.41;;;6.28
68440;BMP180;55421;51.600;5.718;2023-02-01T09:59:51;161499.20;;;6.30
68440;BMP180;55421;51.600;5.718;2023-02-01T10:02:26;161394.00;;;6.30
68440;BMP180;55421;51.600;5.718;2023-02-01T10:04:59;161419.59;;;6.40
68440;BMP180;55421;51.600;5.718;2023-02-01T10:08:00;161496.00;;;6.50
68440;BMP180;55421;51.600;5.718;2023-02-01T10:10:49;161423.20;;;6.50
68440;BMP180;55421;51.600;5.718;2023-02-01T10:13:28;161301.59;;;6.56
68440;BMP180;55421;51.600;5.718;2023-02-01T10:16:47;161917.80;;;6.60
68440;BMP180;55421;51.600;5.718;2023-02-01T10:25:17;158607.20;;;6.80
68440;BMP180;55421;51.600;5.718;2023-02-01T10:27:45;157176.20;;;6.80
68440;BMP180;55421;51.600;5.718;2023-02-01T10:30:24;155010.80;;;6.80
68440;BMP180;55421;51.600;5.718;2023-02-01T10:35:42;153161.00;;;6.82
68440;BMP180;55421;51.600;5.718;2023-02-01T10:38:28;148720.20;;;6.80
68440;BMP180;55421;51.600;5.718;2023-02-01T10:41:11;148594.20;;;6.80
68440;BMP180;55421;51.600;5.718;2023-02-01T10:43:38;148319.41;;;6.88
68440;BMP180;55421;51.600;5.718;2023-02-01T10:46:07;148375.80;;;6.90
68440;BMP180;55421;51.600;5.718;2023-02-01T10:48:35;148457.00;;;6.82
68440;BMP180;55421;51.600;5.718;2023-02-01T10:51:06;149121.80;;;6.80
68440;BMP180;55421;51.600;5.718;2023-02-01T10:53:44;150706.20;;;6.80
68440;BMP180;55421;51.600;5.718;2023-02-01T10:56:13;151935.59;;;6.82
68440;BMP180;55421;51.600;5.718;2023-02-01T10:58:46;151340.80;;;6.80
68440;BMP180;55421;51.600;5.718;2023-02-01T11:01:43;151237.41;;;6.80
68440;BMP180;55421;51.600;5.718;2023-02-01T11:04:20;150442.41;;;6.80
68440;BMP180;55421;51.600;5.718;2023-02-01T11:09:40;150282.80;;;6.90
68440;BMP180;55421;51.600;5.718;2023-02-01T11:12:32;148823.80;;;6.90
68440;BMP180;55421;51.600;5.718;2023-02-01T11:17:44;147204.59;;;6.90
68440;BMP180;55421;51.600;5.718;2023-02-01T11:20:19;148810.41;;;6.90
68440;BMP180;55421;51.600;5.718;2023-02-01T11:22:55;148868.41;;;6.90
68440;BMP180;55421;51.600;5.718;2023-02-01T11:25:23;147186.59;;;6.90
68440;BMP180;55421;51.600;5.718;2023-02-01T11:27:54;147122.80;;;6.90
68440;BMP180;55421;51.600;5.718;2023-02-01T11:30:31;146639.41;;;6.90
68440;BMP180;55421;51.600;5.718;2023-02-01T11:33:00;147245.41;;;6.90
68440;BMP180;55421;51.600;5.718;2023-02-01T11:35:29;144765.20;;;6.90
68440;BMP180;55421;51.600;5.718;2023-02-01T11:37:59;144489.00;;;6.86
68440;BMP180;55421;51.600;5.718;2023-02-01T11:40:35;145310.59;;;6.90
68440;BMP180;55421;51.600;5.718;2023-02-01T11:48:33;144457.41;;;6.90
68440;BMP180;55421;51.600;5.718;2023-02-01T11:51:19;142900.00;;;6.90
68440;BMP180;55421;51.600;5.718;2023-02-01T12:11:55;143473.80;;;7.10
68440;BMP180;55421;51.600;5.718;2023-02-01T12:17:45;139474.59;;;7.10
68440;BMP180;55421;51.600;5.718;2023-02-01T12:26:51;137199.80;;;7.20
68440;BMP180;55421;51.600;5.718;2023-02-01T12:29:35;136135.80;;;7.20
68440;BMP180;55421;51.600;5.718;2023-02-01T12:44:32;135266.80;;;7.10
68440;BMP180;55421;51.600;5.718;2023-02-01T12:47:11;134848.80;;;7.10
68440;BMP180;55421;51.600;5.718;2023-02-01T12:49:53;133357.41;;;7.10
68440;BMP180;55421;51.600;5.718;2023-02-01T12:52:30;133958.59;;;7.10
68440;BMP180;55421;51.600;5.718;2023-02-01T12:55:28;135174.59;;;7.20
68440;BMP180;55421;51.600;5.718;2023-02-01T12:58:18;135217.80;;;7.20
68440;BMP180;55421;51.600;5.718;2023-02-01T13:01:03;135399.59;;;7.30
68440;BMP180;55421;51.600;5.718;2023-02-01T13:03:56;134159.00;;;7.30
68440;BMP180;55421;51.600;5.718;2023-02-01T13:06:36;134974.80;;;7.40
68440;BMP180;55421;51.600;5.718;2023-02-01T13:09:20;137073.00;;;7.50
68440;BMP180;55421;51.600;5.718;2023-02-01T13:11:52;139248.00;;;7.62
68440;BMP180;55421;51.600;5.718;2023-02-01T13:17:05;137944.59;;;7.90
68440;BMP180;55421;51.600;5.718;2023-02-01T13:20:21;136769.59;;;7.90
68440;BMP180;55421;51.600;5.718;2023-02-01T13:22:57;134455.59;;;7.90
68440;BMP180;55421;51.600;5.718;2023-02-01T13:25:48;135381.59;;;7.90
68440;BMP180;55421;51.600;5.718;2023-02-01T13:28:25;136688.80;;;8.00
68440;BMP180;55421;51.600;5.718;2023-02-01T13:34:25;137529.00;;;8.04
68440;BMP180;55421;51.600;5.718;2023-02-01T13:40:31;138510.59;;;8.10
68440;BMP180;55421;51.600;5.718;2023-02-01T13:43:07;137790.80;;;8.10
68440;BMP180;55421;51.600;5.718;2023-02-01T13:45:50;136691.00;;;8.10
68440;BMP180;55421;51.600;5.718;2023-02-01T13:48:50;135837.41;;;8.10
68440;BMP180;55421;51.600;5.718;2023-02-01T13:51:44;136059.20;;;8.10
68440;BMP180;55421;51.600;5.718;2023-02-01T13:54:29;136340.80;;;8.10
68440;BMP180;55421;51.600;5.718;2023-02-01T13:56:59;136465.59;;;8.10
68440;BMP180;55421;51.600;5.718;2023-02-01T14:05:10;134418.80;;;8.10
68440;BMP180;55421;51.600;5.718;2023-02-01T14:13:38;132698.59;;;8.10
68440;BMP180;55421;51.600;5.718;2023-02-01T14:18:48;133315.20;;;8.00
68440;BMP180;55421;51.600;5.718;2023-02-01T14:23:47;132014.20;;;7.90
68440;BMP180;55421;51.600;5.718;2023-02-01T14:26:48;132756.20;;;7.90
68440;BMP180;55421;51.600;5.718;2023-02-01T14:32:03;131642.41;;;7.80
68440;BMP180;55421;51.600;5.718;2023-02-01T14:34:51;133126.20;;;7.76
68440;BMP180;55421;51.600;5.718;2023-02-01T14:47:54;133458.59;;;7.66
68440;BMP180;55421;51.600;5.718;2023-02-01T14:55:45;133816.20;;;7.60
68440;BMP180;55421;51.600;5.718;2023-02-01T15:01:01;135352.00;;;7.70
68440;BMP180;55421;51.600;5.718;2023-02-01T15:06:36;136682.80;;;7.70
68440;BMP180;55421;51.600;5.718;2023-02-01T15:09:19;137112.00;;;7.60
68440;BMP180;55421;51.600;5.718;2023-02-01T15:12:24;136523.41;;;7.60
68440;BMP180;55421;51.600;5.718;2023-02-01T15:15:18;136873.80;;;7.60
68440;BMP180;55421;51.600;5.718;2023-02-01T15:17:59;136317.41;;;7.60
68440;BMP180;55421;51.600;5.718;2023-02-01T15:20:32;137275.41;;;7.60
68440;BMP180;55421;51.600;5.718;2023-02-01T15:23:05;136966.80;;;7.60
68440;BMP180;55421;51.600;5.718;2023-02-01T15:25:35;136717.41;;;7.60
68440;BMP180;55421;51.600;5.718;2023-02-01T15:28:03;136026.20;;;7.60
68440;BMP180;55421;51.600;5.718;2023-02-01T15:30:35;136091.00;;;7.60
68440;BMP180;55421;51.600;5.718;2023-02-01T15:35:50;136177.80;;;7.50
68440;BMP180;55421;51.600;5.718;2023-02-01T15:41:14;136692.41;;;7.58
68440;BMP180;55421;51.600;5.718;2023-02-01T15:48:58;138517.59;;;7.50
68440;BMP180;55421;51.600;5.718;2023-02-01T15:51:29;138501.59;;;7.50
68440;BMP180;55421;51.600;5.718;2023-02-01T15:54:01;139010.59;;;7.50
68440;BMP180;55421;51.600;5.718;2023-02-01T15:56:35;139546.80;;;7.50
68440;BMP180;55421;51.600;5.718;2023-02-01T15:59:06;139622.80;;;7.50
68440;BMP180;55421;51.600;5.718;2023-02-01T16:01:39;139743.00;;;7.50
68440;BMP180;55421;51.600;5.718;2023-02-01T16:04:22;139944.80;;;7.50
68440;BMP180;55421;51.600;5.718;2023-02-01T16:06:53;140191.00;;;7.48
68440;BMP180;55421;51.600;5.718;2023-02-01T16:09:24;139225.00;;;7.48
68440;BMP180;55421;51.600;5.718;2023-02-01T16:12:01;138657.41;;;7.46
68440;BMP180;55421;51.600;5.718;2023-02-01T16:14:28;138691.00;;;7.50
68440;BMP180;55421;51.600;5.718;2023-02-01T16:16:57;138575.41;;;7.50
68440;BMP180;55421;51.600;5.718;2023-02-01T16:19:24;138653.41;;;7.50
68440;BMP180;55421;51.600;5.718;2023-02-01T16:21:57;138176.20;;;7.50
68440;BMP180;55421;51.600;5.718;2023-02-01T16:24:24;138127.80;;;7.50
68440;BMP180;55421;51.600;5.718;2023-02-01T16:26:52;137511.59;;;7.50
68440;BMP180;55421;51.600;5.718;2023-02-01T16:29:18;137090.20;;;7.50
68440;BMP180;55421;51.600;5.718;2023-02-01T16:31:45;136210.59;;;7.54
68440;BMP180;55421;51.600;5.718;2023-02-01T16:34:16;136029.41;;;7.54
68440;BMP180;55421;51.600;5.718;2023-02-01T16:36:47;135898.59;;;7.56
68440;BMP180;55421;51.600;5.718;2023-02-01T16:39:19;136151.20;;;7.60
68440;BMP180;55421;51.600;5.718;2023-02-01T16:41:46;136209.00;;;7.60
68440;BMP180;55421;51.600;5.718;2023-02-01T16:44:13;136500.41;;;7.54
68440;BMP180;55421;51.600;5.718;2023-02-01T16:46:43;136468.00;;;7.50
68440;BMP180;55421;51.600;5.718;2023-02-01T16:49:23;136238.00;;;7.50
68440;BMP180;55421;51.600;5.718;2023-02-01T16:51:52;135809.41;;;7.52
68440;BMP180;55421;51.600;5.718;2023-02-01T16:54:21;136327.41;;;7.52
68440;BMP180;55421;51.600;5.718;2023-02-01T16:56:48;136531.20;;;7.50
68440;BMP180;55421;51.600;5.718;2023-02-01T16:59:15;136803.41;;;7.50
68440;BMP180;55421;51.600;5.718;2023-02-01T17:01:41;135707.00;;;7.50
68440;BMP180;55421;51.600;5.718;2023-02-01T17:04:09;135238.80;;;7.54
68440;BMP180;55421;51.600;5.718;2023-02-01T17:06:37;135856.00;;;7.56